aviador You're here:

MMMX Decoded Metar

MEXICO CITY in MEXICO
Report Time2018-02-20 02:47:00
UTC Time2018-02-20 03:54:15
Flight Rules Old
Wind160° at 07 kt
W.Decomp.*RWY 23: 1.7 kt HW 6.8 kt LCW
W.Rank160° ranks 25
Current wind is above 160° avg. (6.8)
Visibility9999 m
Phenomena:N/A
Clouds:Few 020 Hf
Expected CloudBase > 4,800 ft AGL from Temp-Dew spread
CeilingNone
Temp18°C (ISA +18)
Dew Point06°C (46% RH)
AAT14.6°C
QNH1024 hPa
Density Alt9,137 ft
Elevation7,343 ft
Report Wrong Elevation
Raw Report
METAR MMMX 200247Z 16007KT 9SM FEW020 18/06 A3023 NOSIG RMK SLP080
52010 962 8/500 HZY AC=

Extra information for MMMX:More info

Metar Taf Metar & Taf Last 4 Metars F.Rules Stats Wind Profile Meteogram Temp Stats Airport Information Weather charts Add Link Nearby VenuesMetar ALERT Operation Metar Decoded Social comments